createdAt,value
2023-02-16T00:00:45.695Z,1020.25
2023-02-16T00:01:45.693Z,1020.21
2023-02-16T00:02:45.729Z,1020.20
2023-02-16T00:03:45.771Z,1020.21
2023-02-16T00:04:45.661Z,1020.23
2023-02-16T00:05:45.662Z,1020.18
2023-02-16T00:06:45.642Z,1020.18
2023-02-16T00:07:45.636Z,1020.16
2023-02-16T00:08:45.627Z,1020.16
2023-02-16T00:09:45.616Z,1020.16
2023-02-16T00:11:45.603Z,1020.19
2023-02-16T00:12:45.586Z,1020.16
2023-02-16T00:13:45.586Z,1020.19
2023-02-16T00:14:45.574Z,1020.16
2023-02-16T00:15:45.606Z,1020.14
2023-02-16T00:16:45.549Z,1020.12
2023-02-16T00:17:45.540Z,1020.11
2023-02-16T00:18:45.530Z,1020.10
2023-02-16T00:19:45.549Z,1020.12
2023-02-16T00:20:45.578Z,1020.07
2023-02-16T00:21:45.507Z,1020.06
2023-02-16T00:22:45.493Z,1020.04
2023-02-16T00:23:45.485Z,1020.04
2023-02-16T00:24:45.481Z,1020.07
2023-02-16T00:25:45.472Z,1020.08
2023-02-16T00:28:53.223Z,1020.11
2023-02-16T00:29:53.234Z,1020.11
2023-02-16T00:31:53.361Z,1020.13
2023-02-16T00:34:53.232Z,1020.14
2023-02-16T00:35:53.147Z,1020.16
2023-02-16T00:36:53.516Z,1020.18
2023-02-16T00:39:55.729Z,1020.08
2023-02-16T00:40:55.721Z,1020.05
2023-02-16T00:41:53.092Z,1020.05
2023-02-16T00:42:53.087Z,1020.03
2023-02-16T00:43:53.074Z,1020.01
2023-02-16T00:44:53.063Z,1020.00
2023-02-16T00:45:53.103Z,1020.00
2023-02-16T00:46:53.045Z,1019.99
2023-02-16T00:47:53.040Z,1019.93
2023-02-16T00:48:53.026Z,1019.91
2023-02-16T00:50:53.043Z,1019.92
2023-02-16T00:51:53.008Z,1019.95
2023-02-16T00:52:52.985Z,1019.93
2023-02-16T00:53:52.981Z,1019.95
2023-02-16T00:54:52.970Z,1019.96
2023-02-16T00:55:52.964Z,1019.96
2023-02-16T00:56:52.951Z,1020.01
2023-02-16T00:57:52.956Z,1019.96
2023-02-16T00:58:52.947Z,1019.97
2023-02-16T00:59:52.945Z,1019.96
2023-02-16T01:00:52.920Z,1019.94
2023-02-16T01:01:52.989Z,1019.93
2023-02-16T01:02:52.891Z,1019.95
2023-02-16T01:03:52.888Z,1019.92
2023-02-16T01:04:53.102Z,1019.97
2023-02-16T01:10:45.407Z,1019.86
2023-02-16T01:16:45.688Z,1019.83
2023-02-16T01:17:45.479Z,1019.85
2023-02-16T01:18:45.469Z,1019.89
2023-02-16T01:19:45.470Z,1019.86
2023-02-16T01:20:45.450Z,1019.89
2023-02-16T01:21:45.442Z,1019.87
2023-02-16T01:22:45.428Z,1019.83
2023-02-16T01:23:45.424Z,1019.89
2023-02-16T01:24:45.417Z,1019.84
2023-02-16T01:25:45.419Z,1019.87
2023-02-16T01:26:45.410Z,1019.85
2023-02-16T01:27:45.386Z,1019.91
2023-02-16T01:28:45.377Z,1019.87
2023-02-16T01:29:45.403Z,1019.87
2023-02-16T01:30:45.365Z,1019.84
2023-02-16T01:31:45.479Z,1019.84
2023-02-16T01:32:45.344Z,1019.80
2023-02-16T01:33:45.344Z,1019.79
2023-02-16T01:34:45.323Z,1019.81
2023-02-16T01:35:45.321Z,1019.81
2023-02-16T01:36:45.313Z,1019.78
2023-02-16T01:37:45.303Z,1019.80
2023-02-16T01:38:45.863Z,1019.77
2023-02-16T01:39:45.292Z,1019.80
2023-02-16T01:40:45.277Z,1019.86
2023-02-16T01:41:45.272Z,1019.85
2023-02-16T01:42:45.282Z,1019.85
2023-02-16T01:44:48.290Z,1019.87
2023-02-16T01:45:47.859Z,1019.86
2023-02-16T01:46:47.902Z,1019.84
2023-02-16T01:47:45.220Z,1019.87
2023-02-16T01:50:45.206Z,1019.86
2023-02-16T01:52:45.179Z,1019.81
2023-02-16T01:53:45.174Z,1019.76
2023-02-16T01:54:45.161Z,1019.78
2023-02-16T01:55:45.152Z,1019.74
2023-02-16T01:56:45.143Z,1019.71
2023-02-16T01:57:45.194Z,1019.69
2023-02-16T01:58:45.144Z,1019.69
2023-02-16T01:59:45.133Z,1019.66
2023-02-16T02:00:45.113Z,1019.65
2023-02-16T02:01:45.209Z,1019.65
2023-02-16T02:02:45.123Z,1019.67
2023-02-16T02:03:45.087Z,1019.65
2023-02-16T02:04:45.074Z,1019.66
2023-02-16T02:05:45.074Z,1019.66
2023-02-16T02:06:45.072Z,1019.70
2023-02-16T02:07:45.065Z,1019.70
2023-02-16T02:08:45.040Z,1019.72
2023-02-16T02:09:45.031Z,1019.60
2023-02-16T02:10:45.020Z,1019.63
2023-02-16T02:11:45.020Z,1019.63
2023-02-16T02:12:45.014Z,1019.65
2023-02-16T02:13:45.013Z,1019.66
2023-02-16T02:14:45.003Z,1019.67
2023-02-16T02:15:45.003Z,1019.68
2023-02-16T02:16:44.966Z,1019.67
2023-02-16T02:17:44.964Z,1019.65
2023-02-16T02:18:44.966Z,1019.67
2023-02-16T02:19:44.935Z,1019.66
2023-02-16T02:20:44.923Z,1019.65
2023-02-16T02:21:44.917Z,1019.70
2023-02-16T02:22:44.903Z,1019.65
2023-02-16T02:23:44.894Z,1019.62
2023-02-16T02:24:44.885Z,1019.61
2023-02-16T02:25:44.910Z,1019.59
2023-02-16T02:26:44.869Z,1019.58
2023-02-16T02:27:44.858Z,1019.58
2023-02-16T02:28:44.848Z,1019.60
2023-02-16T02:29:44.838Z,1019.59
2023-02-16T02:30:44.895Z,1019.61
2023-02-16T02:31:44.927Z,1019.60
2023-02-16T02:32:44.805Z,1019.62
2023-02-16T02:33:44.801Z,1019.60
2023-02-16T02:34:44.787Z,1019.56
2023-02-16T02:35:44.782Z,1019.60
2023-02-16T02:36:44.771Z,1019.56
2023-02-16T02:37:44.761Z,1019.54
2023-02-16T02:38:44.754Z,1019.52
2023-02-16T02:41:27.736Z,1019.57
2023-02-16T02:42:27.733Z,1019.61
2023-02-16T02:43:27.716Z,1019.55
2023-02-16T02:45:40.922Z,1019.49
2023-02-16T02:46:40.918Z,1019.50
2023-02-16T02:47:40.862Z,1019.51
2023-02-16T02:48:40.878Z,1019.52
2023-02-16T02:49:40.859Z,1019.50
2023-02-16T02:50:40.836Z,1019.50
2023-02-16T02:51:40.825Z,1019.51
2023-02-16T02:52:40.814Z,1019.50
2023-02-16T02:53:40.800Z,1019.44
2023-02-16T02:56:40.775Z,1019.42
2023-02-16T02:59:06.005Z,1019.39
2023-02-16T03:00:03.375Z,1019.37
2023-02-16T03:01:03.748Z,1019.39
2023-02-16T03:02:03.402Z,1019.38
2023-02-16T03:03:03.341Z,1019.37
2023-02-16T03:04:03.334Z,1019.35
2023-02-16T03:05:03.322Z,1019.36
2023-02-16T03:06:03.316Z,1019.32
2023-02-16T03:07:03.303Z,1019.34
2023-02-16T03:08:03.295Z,1019.37
2023-02-16T03:09:03.285Z,1019.32
2023-02-16T03:10:03.275Z,1019.30
2023-02-16T03:11:03.627Z,1019.32
2023-02-16T03:12:03.260Z,1019.33
2023-02-16T03:13:03.247Z,1019.31
2023-02-16T03:14:03.246Z,1019.31
2023-02-16T03:15:03.230Z,1019.31
2023-02-16T03:16:03.274Z,1019.27
2023-02-16T03:17:03.209Z,1019.22
2023-02-16T03:18:03.221Z,1019.25
2023-02-16T03:19:03.184Z,1019.23
2023-02-16T03:20:03.178Z,1019.21
2023-02-16T03:21:03.455Z,1019.19
2023-02-16T03:22:03.158Z,1019.16
2023-02-16T03:23:03.150Z,1019.15
2023-02-16T03:24:03.142Z,1019.10
2023-02-16T03:25:03.149Z,1019.02
2023-02-16T03:26:03.145Z,1019.09
2023-02-16T03:27:03.102Z,1019.03
2023-02-16T03:28:03.103Z,1019.03
2023-02-16T03:29:03.092Z,1019.02
2023-02-16T03:30:03.111Z,1019.00
2023-02-16T03:31:03.560Z,1019.00
2023-02-16T03:32:03.104Z,1018.97
2023-02-16T03:33:03.046Z,1019.01
2023-02-16T03:34:03.058Z,1018.95
2023-02-16T03:35:03.021Z,1018.96
2023-02-16T03:36:03.015Z,1018.96
2023-02-16T03:37:03.005Z,1018.94
2023-02-16T03:38:02.996Z,1018.93
2023-02-16T03:39:02.983Z,1018.95
2023-02-16T03:40:02.974Z,1018.92
2023-02-16T03:41:03.292Z,1018.95
2023-02-16T03:42:02.955Z,1018.95
2023-02-16T03:43:02.968Z,1018.96
2023-02-16T03:44:02.938Z,1018.96
2023-02-16T03:45:02.921Z,1018.99
2023-02-16T03:46:03.003Z,1019.01
2023-02-16T03:47:02.904Z,1019.05
2023-02-16T03:48:02.895Z,1019.06
2023-02-16T03:49:02.885Z,1019.08
2023-02-16T03:50:02.920Z,1019.05
2023-02-16T03:51:03.423Z,1019.07
2023-02-16T03:52:02.855Z,1018.99
2023-02-16T03:53:02.843Z,1019.06
2023-02-16T03:54:02.833Z,1019.04
2023-02-16T03:58:02.796Z,1019.06
2023-02-16T03:59:02.780Z,1019.05
2023-02-16T04:00:02.840Z,1019.08
2023-02-16T04:01:03.078Z,1019.07
2023-02-16T04:02:02.848Z,1019.06
2023-02-16T04:03:02.743Z,1019.05
2023-02-16T04:04:02.822Z,1019.08
2023-02-16T04:05:02.723Z,1019.11
2023-02-16T04:06:02.738Z,1019.08
2023-02-16T04:07:02.705Z,1019.10
2023-02-16T04:08:02.692Z,1019.08
2023-02-16T04:09:02.681Z,1019.12
2023-02-16T04:10:02.676Z,1019.10
2023-02-16T04:11:02.957Z,1019.07
2023-02-16T04:12:02.654Z,1019.08
2023-02-16T04:13:02.651Z,1019.11
2023-02-16T04:14:02.633Z,1019.10
2023-02-16T04:15:02.621Z,1019.15
2023-02-16T04:16:02.621Z,1019.12
2023-02-16T04:17:02.601Z,1019.12
2023-02-16T04:18:02.592Z,1019.13
2023-02-16T04:19:02.581Z,1019.11
2023-02-16T04:20:02.575Z,1019.09
2023-02-16T04:21:02.959Z,1019.08
2023-02-16T04:22:02.578Z,1019.07
2023-02-16T04:23:02.540Z,1019.04
2023-02-16T04:24:02.537Z,1019.02
2023-02-16T04:25:02.531Z,1018.99
2023-02-16T04:26:02.516Z,1018.99
2023-02-16T04:27:02.501Z,1018.99
2023-02-16T04:28:02.497Z,1018.97
2023-02-16T04:29:02.485Z,1019.00
2023-02-16T04:30:02.566Z,1019.00
2023-02-16T04:31:02.961Z,1019.02
2023-02-16T04:32:02.562Z,1019.01
2023-02-16T04:33:02.439Z,1019.05
2023-02-16T04:34:02.776Z,1019.01
2023-02-16T04:35:02.415Z,1019.00
2023-02-16T04:36:02.410Z,1019.04
2023-02-16T04:37:02.413Z,1019.04
2023-02-16T04:38:02.501Z,1019.06
2023-02-16T04:39:02.373Z,1019.03
2023-02-16T04:40:02.366Z,1019.06
2023-02-16T04:41:02.820Z,1019.04
2023-02-16T04:42:02.345Z,1018.99
2023-02-16T04:43:02.330Z,1019.01
2023-02-16T04:44:02.356Z,1019.02
2023-02-16T04:45:02.313Z,1019.07
2023-02-16T04:46:02.376Z,1019.07
2023-02-16T04:47:02.303Z,1019.10
2023-02-16T04:48:02.280Z,1019.12
2023-02-16T04:49:02.273Z,1019.14
2023-02-16T04:50:02.298Z,1019.09
2023-02-16T04:51:02.622Z,1019.06
2023-02-16T04:52:02.241Z,1019.09
2023-02-16T04:53:02.238Z,1019.10
2023-02-16T04:54:02.283Z,1019.05
2023-02-16T04:55:02.214Z,1019.04
2023-02-16T04:56:02.200Z,1019.07
2023-02-16T04:57:02.194Z,1019.04
2023-02-16T04:58:02.192Z,1019.01
2023-02-16T04:59:02.166Z,1019.00
2023-02-16T05:00:02.160Z,1019.00
2023-02-16T05:01:02.513Z,1018.98
2023-02-16T05:02:02.150Z,1018.96
2023-02-16T05:03:02.125Z,1018.94
2023-02-16T05:04:02.121Z,1018.96
2023-02-16T05:05:02.111Z,1019.01
2023-02-16T05:06:02.097Z,1018.99
2023-02-16T05:07:02.153Z,1018.99
2023-02-16T05:08:02.076Z,1018.97
2023-02-16T05:09:02.066Z,1018.98
2023-02-16T05:10:02.078Z,1019.01
2023-02-16T05:11:02.459Z,1019.02
2023-02-16T05:12:02.045Z,1019.06
2023-02-16T05:13:02.025Z,1019.04
2023-02-16T05:14:02.014Z,1019.08
2023-02-16T05:15:02.020Z,1019.06
2023-02-16T05:16:02.113Z,1019.03
2023-02-16T05:17:01.989Z,1019.04
2023-02-16T05:18:01.970Z,1019.05
2023-02-16T05:19:01.967Z,1019.05
2023-02-16T05:20:01.993Z,1019.05
2023-02-16T05:21:02.278Z,1019.08
2023-02-16T05:22:01.952Z,1019.06
2023-02-16T05:23:01.924Z,1019.08
2023-02-16T05:24:01.914Z,1019.11
2023-02-16T05:25:01.910Z,1019.10
2023-02-16T05:26:01.909Z,1019.11
2023-02-16T05:27:01.887Z,1019.11
2023-02-16T05:28:01.915Z,1019.14
2023-02-16T05:29:01.868Z,1019.13
2023-02-16T05:30:01.983Z,1019.12
2023-02-16T05:31:02.297Z,1019.09
2023-02-16T05:32:04.482Z,1019.07
2023-02-16T05:33:01.823Z,1019.12
2023-02-16T05:34:01.818Z,1019.11
2023-02-16T05:35:01.829Z,1019.11
2023-02-16T05:36:01.791Z,1019.10
2023-02-16T05:37:01.796Z,1019.07
2023-02-16T05:38:01.771Z,1019.06
2023-02-16T05:39:01.782Z,1019.03
2023-02-16T05:40:01.757Z,1019.04
2023-02-16T05:41:02.037Z,1019.07
2023-02-16T05:43:04.957Z,1019.13
2023-02-16T05:44:01.710Z,1019.12
2023-02-16T05:45:01.702Z,1019.15
2023-02-16T05:46:01.721Z,1019.17
2023-02-16T05:47:01.683Z,1019.18
2023-02-16T05:48:01.672Z,1019.19
2023-02-16T05:49:01.662Z,1019.19
2023-02-16T05:50:01.660Z,1019.17
2023-02-16T05:51:02.303Z,1019.14
2023-02-16T05:52:01.640Z,1019.12
2023-02-16T05:53:01.619Z,1019.13
2023-02-16T05:54:01.610Z,1019.13
2023-02-16T05:56:01.589Z,1019.09
2023-02-16T05:57:01.583Z,1019.11
2023-02-16T05:58:01.590Z,1019.14
2023-02-16T05:59:01.563Z,1019.10
2023-02-16T06:00:01.556Z,1019.08
2023-02-16T06:01:01.860Z,1019.05
2023-02-16T06:02:01.529Z,1019.06
2023-02-16T06:03:01.633Z,1019.04
2023-02-16T06:04:01.651Z,1019.07
2023-02-16T06:05:01.520Z,1019.07
2023-02-16T06:06:01.493Z,1019.04
2023-02-16T06:07:01.488Z,1019.04
2023-02-16T06:08:01.470Z,1019.01
2023-02-16T06:09:01.457Z,1019.00
2023-02-16T06:10:01.451Z,1019.01
2023-02-16T06:11:01.655Z,1018.99
2023-02-16T06:12:01.429Z,1019.00
2023-02-16T06:13:01.417Z,1019.06
2023-02-16T06:14:01.429Z,1019.04
2023-02-16T06:15:01.405Z,1019.04
2023-02-16T06:16:01.453Z,1019.08
2023-02-16T06:17:01.428Z,1019.08
2023-02-16T06:18:01.367Z,1019.11
2023-02-16T06:19:01.356Z,1019.09
2023-02-16T06:20:01.344Z,1019.06
2023-02-16T06:21:01.357Z,1019.06
2023-02-16T06:22:01.333Z,1019.03
2023-02-16T06:23:01.318Z,1019.01
2023-02-16T06:24:01.307Z,1019.05
2023-02-16T06:25:01.293Z,1019.00
2023-02-16T06:26:01.285Z,1019.01
2023-02-16T06:27:01.359Z,1019.03
2023-02-16T06:28:01.262Z,1019.02
2023-02-16T06:29:01.256Z,1019.04
2023-02-16T06:30:01.426Z,1019.02
2023-02-16T06:31:01.332Z,1019.02
2023-02-16T06:32:01.350Z,1019.00
2023-02-16T06:33:01.214Z,1018.96
2023-02-16T06:34:01.200Z,1018.99
2023-02-16T06:35:01.191Z,1018.99
2023-02-16T06:36:01.178Z,1019.02
2023-02-16T06:37:01.176Z,1019.05
2023-02-16T06:38:01.160Z,1019.05
2023-02-16T06:39:01.608Z,1019.07
2023-02-16T06:40:01.138Z,1019.05
2023-02-16T06:41:01.156Z,1019.05
2023-02-16T06:42:01.125Z,1019.06
2023-02-16T06:43:01.113Z,1019.06
2023-02-16T06:44:01.099Z,1019.00
2023-02-16T06:45:01.128Z,1018.99
2023-02-16T06:46:01.094Z,1019.05
2023-02-16T06:47:01.074Z,1019.01
2023-02-16T06:48:01.056Z,1019.02
2023-02-16T06:49:01.046Z,1019.10
2023-02-16T06:50:01.040Z,1019.08
2023-02-16T06:51:01.046Z,1019.10
2023-02-16T06:52:01.028Z,1019.09
2023-02-16T06:53:01.017Z,1019.12
2023-02-16T06:54:01.000Z,1019.14
2023-02-16T06:55:00.986Z,1019.13
2023-02-16T06:56:00.984Z,1019.09
2023-02-16T06:57:00.968Z,1019.14
2023-02-16T06:58:00.963Z,1019.15
2023-02-16T06:59:00.969Z,1019.13
2023-02-16T07:00:00.950Z,1019.10
2023-02-16T07:01:01.043Z,1019.10
2023-02-16T07:02:00.994Z,1019.12
2023-02-16T07:03:00.933Z,1019.11
2023-02-16T07:04:00.897Z,1019.11
2023-02-16T07:05:00.919Z,1019.12
2023-02-16T07:06:00.878Z,1019.15
2023-02-16T07:07:00.873Z,1019.22
2023-02-16T07:08:00.852Z,1019.30
2023-02-16T07:10:00.838Z,1019.22
2023-02-16T07:11:00.824Z,1019.17
2023-02-16T07:12:00.818Z,1019.16
2023-02-16T07:13:00.812Z,1019.17
2023-02-16T07:14:00.801Z,1019.19
2023-02-16T07:15:00.794Z,1019.23
2023-02-16T07:16:00.817Z,1019.25
2023-02-16T07:17:00.766Z,1019.23
2023-02-16T07:18:00.787Z,1019.26
2023-02-16T07:19:00.747Z,1019.30
2023-02-16T07:20:00.745Z,1019.26
2023-02-16T07:21:00.731Z,1019.21
2023-02-16T07:22:00.756Z,1019.18
2023-02-16T07:23:00.708Z,1019.18
2023-02-16T07:24:00.703Z,1019.17
2023-02-16T07:25:00.702Z,1019.20
2023-02-16T07:26:00.679Z,1019.17
2023-02-16T07:27:00.672Z,1019.18
2023-02-16T07:28:00.659Z,1019.14
2023-02-16T07:30:00.838Z,1019.13
2023-02-16T07:31:00.714Z,1019.11
2023-02-16T07:32:00.775Z,1019.13
2023-02-16T07:33:00.622Z,1019.10
2023-02-16T07:34:00.618Z,1019.13
2023-02-16T07:35:00.591Z,1019.16
2023-02-16T07:36:00.583Z,1019.20
2023-02-16T07:38:00.558Z,1019.15
2023-02-16T07:39:00.552Z,1019.13
2023-02-16T07:40:00.997Z,1019.09
2023-02-16T07:41:00.532Z,1019.07
2023-02-16T07:42:00.530Z,1019.11
2023-02-16T07:43:00.520Z,1019.11
2023-02-16T07:44:00.512Z,1019.09
2023-02-16T07:45:00.515Z,1019.12
2023-02-16T07:46:00.555Z,1019.15
2023-02-16T07:47:00.472Z,1019.21
2023-02-16T07:48:00.465Z,1019.19
2023-02-16T07:50:00.464Z,1019.18
2023-02-16T07:51:00.452Z,1019.22
2023-02-16T07:52:00.424Z,1019.17
2023-02-16T07:53:00.415Z,1019.18
2023-02-16T07:54:00.412Z,1019.13
2023-02-16T07:55:00.424Z,1019.15
2023-02-16T07:56:00.385Z,1019.16
2023-02-16T07:57:00.376Z,1019.15
2023-02-16T07:58:00.367Z,1019.13
2023-02-16T07:59:00.359Z,1019.09
2023-02-16T08:00:00.349Z,1019.09
2023-02-16T08:01:00.342Z,1019.12
2023-02-16T08:02:00.615Z,1019.11
2023-02-16T08:03:00.475Z,1019.16
2023-02-16T08:04:00.312Z,1019.15
2023-02-16T08:05:00.298Z,1019.17
2023-02-16T08:06:00.314Z,1019.16
2023-02-16T08:07:00.281Z,1019.14
2023-02-16T08:08:00.273Z,1019.21
2023-02-16T08:09:00.285Z,1019.23
2023-02-16T08:10:00.252Z,1019.24
2023-02-16T08:11:12.986Z,1019.25
2023-02-16T08:12:00.234Z,1019.30
2023-02-16T08:14:00.226Z,1019.30
2023-02-16T08:15:00.209Z,1019.29
2023-02-16T08:16:00.261Z,1019.30
2023-02-16T08:17:00.352Z,1019.27
2023-02-16T08:18:00.207Z,1019.27
2023-02-16T08:19:00.184Z,1019.25
2023-02-16T08:20:00.195Z,1019.25
2023-02-16T08:23:00.248Z,1019.28
2023-02-16T08:24:00.127Z,1019.21
2023-02-16T08:25:00.125Z,1019.23
2023-02-16T08:26:00.127Z,1019.19
2023-02-16T08:27:00.132Z,1019.21
2023-02-16T08:28:00.113Z,1019.19
2023-02-16T08:29:00.122Z,1019.20
2023-02-16T08:30:00.126Z,1019.20
2023-02-16T08:31:00.116Z,1019.18
2023-02-16T08:32:00.108Z,1019.20
2023-02-16T08:33:00.048Z,1019.19
2023-02-16T08:34:00.044Z,1019.26
2023-02-16T08:35:00.032Z,1019.29
2023-02-16T08:36:00.032Z,1019.28
2023-02-16T08:37:00.019Z,1019.30
2023-02-16T08:38:00.006Z,1019.29
2023-02-16T08:39:00.014Z,1019.35
2023-02-16T08:39:59.990Z,1019.30
2023-02-16T08:40:59.976Z,1019.34
2023-02-16T08:41:59.965Z,1019.34
2023-02-16T08:42:59.958Z,1019.35
2023-02-16T08:43:59.951Z,1019.35
2023-02-16T08:45:00.176Z,1019.34
2023-02-16T08:45:59.980Z,1019.31
2023-02-16T08:46:59.922Z,1019.32
2023-02-16T08:49:59.898Z,1019.29
2023-02-16T08:50:59.880Z,1019.26
2023-02-16T08:51:59.877Z,1019.22
2023-02-16T08:52:59.862Z,1019.25
2023-02-16T08:53:59.858Z,1019.29
2023-02-16T08:54:59.879Z,1019.29
2023-02-16T08:57:59.818Z,1019.35
2023-02-16T08:58:59.806Z,1019.34
2023-02-16T09:00:59.819Z,1019.43
2023-02-16T09:01:59.862Z,1019.44
2023-02-16T09:02:59.777Z,1019.47
2023-02-16T09:03:59.763Z,1019.44
2023-02-16T09:04:59.753Z,1019.42
2023-02-16T09:05:59.748Z,1019.44
2023-02-16T09:06:59.731Z,1019.42
2023-02-16T09:07:59.731Z,1019.41
2023-02-16T09:08:59.723Z,1019.50
2023-02-16T09:09:59.715Z,1019.52
2023-02-16T09:10:59.757Z,1019.51
2023-02-16T09:11:59.701Z,1019.50
2023-02-16T09:12:59.686Z,1019.46
2023-02-16T09:13:59.685Z,1019.45
2023-02-16T09:14:59.674Z,1019.41
2023-02-16T09:15:59.667Z,1019.41
2023-02-16T09:16:59.766Z,1019.39
2023-02-16T09:17:59.652Z,1019.43
2023-02-16T09:18:59.646Z,1019.43
2023-02-16T09:19:59.636Z,1019.46
2023-02-16T09:20:59.629Z,1019.45
2023-02-16T09:21:59.640Z,1019.44
2023-02-16T09:22:59.633Z,1019.45
2023-02-16T09:23:59.613Z,1019.45
2023-02-16T09:24:59.609Z,1019.46
2023-02-16T09:25:59.610Z,1019.45
2023-02-16T09:26:59.615Z,1019.48
2023-02-16T09:27:59.587Z,1019.49
2023-02-16T09:28:59.574Z,1019.52
2023-02-16T09:29:59.593Z,1019.52
2023-02-16T09:30:59.679Z,1019.45
2023-02-16T09:31:59.608Z,1019.45
2023-02-16T09:32:59.555Z,1019.44
2023-02-16T09:33:59.542Z,1019.44
2023-02-16T09:34:59.537Z,1019.39
2023-02-16T09:35:59.533Z,1019.38
2023-02-16T09:36:59.526Z,1019.48
2023-02-16T09:37:59.517Z,1019.47
2023-02-16T09:38:59.524Z,1019.49
2023-02-16T09:39:59.511Z,1019.53
2023-02-16T09:40:59.511Z,1019.50
2023-02-16T09:41:59.623Z,1019.46
2023-02-16T09:42:59.551Z,1019.46
2023-02-16T09:43:59.476Z,1019.49
2023-02-16T09:44:59.473Z,1019.48
2023-02-16T09:45:59.520Z,1019.52
2023-02-16T09:46:59.457Z,1019.54
2023-02-16T09:47:59.460Z,1019.60
2023-02-16T09:48:59.441Z,1019.61
2023-02-16T09:49:59.440Z,1019.69
2023-02-16T09:50:59.435Z,1019.67
2023-02-16T09:51:59.433Z,1019.70
2023-02-16T09:52:59.418Z,1019.77
2023-02-16T09:53:59.414Z,1019.72
2023-02-16T09:54:59.410Z,1019.68
2023-02-16T09:55:59.417Z,1019.71
2023-02-16T09:56:59.402Z,1019.71
2023-02-16T09:57:59.387Z,1019.71
2023-02-16T09:58:59.443Z,1019.75
2023-02-16T09:59:59.374Z,1019.76
2023-02-16T10:00:59.393Z,1019.71
2023-02-16T10:01:59.425Z,1019.70
2023-02-16T10:02:59.354Z,1019.71
2023-02-16T10:03:59.352Z,1019.74
2023-02-16T10:04:59.342Z,1019.72
2023-02-16T10:05:59.336Z,1019.73
2023-02-16T10:06:59.328Z,1019.75
2023-02-16T10:07:59.322Z,1019.76
2023-02-16T10:08:59.316Z,1019.74
2023-02-16T10:09:59.314Z,1019.79
2023-02-16T10:10:59.303Z,1019.77
2023-02-16T10:11:59.299Z,1019.77
2023-02-16T10:12:59.292Z,1019.77
2023-02-16T10:13:59.289Z,1019.77
2023-02-16T10:14:59.304Z,1019.80
2023-02-16T10:15:59.326Z,1019.79
2023-02-16T10:16:59.268Z,1019.80
2023-02-16T10:17:59.264Z,1019.75
2023-02-16T10:18:59.254Z,1019.73
2023-02-16T10:19:59.248Z,1019.76
2023-02-16T10:20:59.241Z,1019.77
2023-02-16T10:21:59.239Z,1019.72
2023-02-16T10:22:59.237Z,1019.72
2023-02-16T10:23:59.226Z,1019.73
2023-02-16T10:24:59.221Z,1019.72
2023-02-16T10:25:59.217Z,1019.72
2023-02-16T10:26:59.204Z,1019.70
2023-02-16T10:27:59.200Z,1019.69
2023-02-16T10:28:59.193Z,1019.73
2023-02-16T10:29:59.206Z,1019.71
2023-02-16T10:30:59.294Z,1019.73
2023-02-16T10:31:59.282Z,1019.75
2023-02-16T10:32:59.170Z,1019.71
2023-02-16T10:33:59.166Z,1019.76
2023-02-16T10:34:59.160Z,1019.76
2023-02-16T10:35:59.156Z,1019.75
2023-02-16T10:36:59.149Z,1019.76
2023-02-16T10:37:59.154Z,1019.76
2023-02-16T10:38:59.178Z,1019.78
2023-02-16T10:39:59.134Z,1019.80
2023-02-16T10:40:59.133Z,1019.82
2023-02-16T10:41:59.296Z,1019.78
2023-02-16T10:42:59.112Z,1019.82
2023-02-16T10:43:59.109Z,1019.77
2023-02-16T10:44:59.102Z,1019.81
2023-02-16T10:45:59.143Z,1019.78
2023-02-16T10:46:59.170Z,1019.75
2023-02-16T10:47:59.086Z,1019.77
2023-02-16T10:48:59.081Z,1019.76
2023-02-16T10:49:59.074Z,1019.75
2023-02-16T10:50:59.085Z,1019.77
2023-02-16T10:51:59.064Z,1019.76
2023-02-16T10:52:59.063Z,1019.70
2023-02-16T10:53:59.051Z,1019.68
2023-02-16T10:54:59.043Z,1019.67
2023-02-16T10:55:59.040Z,1019.66
2023-02-16T10:56:59.037Z,1019.67
2023-02-16T10:57:59.047Z,1019.63
2023-02-16T10:58:59.024Z,1019.63
2023-02-16T10:59:59.022Z,1019.59
2023-02-16T11:00:59.011Z,1019.63
2023-02-16T11:01:59.006Z,1019.62
2023-02-16T11:02:59.025Z,1019.64
2023-02-16T11:03:58.994Z,1019.67
2023-02-16T11:04:58.990Z,1019.64
2023-02-16T11:05:58.990Z,1019.65
2023-02-16T11:06:58.982Z,1019.62
2023-02-16T11:07:58.968Z,1019.57
2023-02-16T11:08:58.964Z,1019.56
2023-02-16T11:09:58.958Z,1019.55
2023-02-16T11:10:58.951Z,1019.56
2023-02-16T11:11:58.954Z,1019.55
2023-02-16T11:12:58.941Z,1019.49
2023-02-16T11:13:58.935Z,1019.46
2023-02-16T11:14:58.934Z,1019.44
2023-02-16T11:15:58.954Z,1019.44
2023-02-16T11:16:58.918Z,1019.43
2023-02-16T11:17:58.912Z,1019.42
2023-02-16T11:18:58.983Z,1019.41
2023-02-16T11:20:01.436Z,1019.41
2023-02-16T11:20:58.894Z,1019.36
2023-02-16T11:21:58.895Z,1019.32
2023-02-16T11:22:58.880Z,1019.34
2023-02-16T11:23:58.886Z,1019.34
2023-02-16T11:24:58.871Z,1019.31
2023-02-16T11:25:58.870Z,1019.29
2023-02-16T11:26:58.858Z,1019.28
2023-02-16T11:27:58.857Z,1019.29
2023-02-16T11:28:58.847Z,1019.31
2023-02-16T11:29:58.884Z,1019.25
2023-02-16T11:30:58.920Z,1019.24
2023-02-16T11:31:58.962Z,1019.25
2023-02-16T11:32:58.829Z,1019.22
2023-02-16T11:33:58.836Z,1019.19
2023-02-16T11:34:58.848Z,1019.08
2023-02-16T11:35:58.809Z,1019.13
2023-02-16T11:36:58.808Z,1019.11
2023-02-16T11:37:58.804Z,1019.06
2023-02-16T11:38:58.793Z,1019.08
2023-02-16T11:39:58.794Z,1019.09
2023-02-16T11:40:58.784Z,1019.12
2023-02-16T11:41:58.800Z,1019.07
2023-02-16T11:42:58.765Z,1018.99
2023-02-16T11:43:58.768Z,1019.04
2023-02-16T11:44:58.759Z,1019.05
2023-02-16T11:45:58.746Z,1019.03
2023-02-16T11:46:58.746Z,1019.08
2023-02-16T11:47:58.737Z,1019.02
2023-02-16T11:48:58.731Z,1018.98
2023-02-16T11:49:58.720Z,1019.04
2023-02-16T11:50:58.757Z,1019.08
2023-02-16T11:51:58.712Z,1019.09
2023-02-16T11:52:58.708Z,1019.05
2023-02-16T11:53:58.700Z,1019.07
2023-02-16T11:54:58.694Z,1019.04
2023-02-16T11:55:58.686Z,1019.01
2023-02-16T11:56:58.684Z,1018.96
2023-02-16T11:57:58.678Z,1018.90
2023-02-16T11:58:58.673Z,1018.84
2023-02-16T11:59:58.704Z,1018.92
2023-02-16T12:00:58.667Z,1018.94
2023-02-16T12:01:58.656Z,1018.94
2023-02-16T12:02:58.653Z,1018.94
2023-02-16T12:03:58.679Z,1018.93
2023-02-16T12:04:58.669Z,1018.90
2023-02-16T12:05:58.785Z,1018.93
2023-02-16T12:06:58.646Z,1018.89
2023-02-16T12:07:58.623Z,1018.96
2023-02-16T12:08:58.627Z,1018.94
2023-02-16T12:09:58.612Z,1018.89
2023-02-16T12:10:58.628Z,1018.92
2023-02-16T12:11:58.611Z,1018.87
2023-02-16T12:12:58.597Z,1018.91
2023-02-16T12:13:58.591Z,1018.93
2023-02-16T12:14:58.591Z,1018.96
2023-02-16T12:15:58.607Z,1018.94
2023-02-16T12:16:58.612Z,1018.95
2023-02-16T12:17:58.576Z,1018.87
2023-02-16T12:18:58.571Z,1018.86
2023-02-16T12:19:58.563Z,1018.85
2023-02-16T12:20:58.562Z,1018.83
2023-02-16T12:21:58.550Z,1018.84
2023-02-16T12:22:58.561Z,1018.82
2023-02-16T12:23:58.548Z,1018.79
2023-02-16T12:24:58.532Z,1018.81
2023-02-16T12:25:58.525Z,1018.85
2023-02-16T12:26:58.522Z,1018.85
2023-02-16T12:27:58.511Z,1018.84
2023-02-16T12:28:58.517Z,1018.81
2023-02-16T12:29:58.521Z,1018.79
2023-02-16T12:30:58.550Z,1018.82
2023-02-16T12:31:58.538Z,1018.85
2023-02-16T12:32:58.496Z,1018.82
2023-02-16T12:33:58.479Z,1018.80
2023-02-16T12:34:58.477Z,1018.78
2023-02-16T12:35:58.466Z,1018.80
2023-02-16T12:36:58.464Z,1018.79
2023-02-16T12:37:58.463Z,1018.78
2023-02-16T12:38:58.478Z,1018.77
2023-02-16T12:39:58.444Z,1018.78
2023-02-16T12:40:58.629Z,1018.66
2023-02-16T12:41:58.437Z,1018.65
2023-02-16T12:42:58.432Z,1018.69
2023-02-16T12:43:58.424Z,1018.67
2023-02-16T12:44:58.418Z,1018.64
2023-02-16T12:45:58.468Z,1018.62
2023-02-16T12:46:58.408Z,1018.61
2023-02-16T12:47:58.401Z,1018.63
2023-02-16T12:48:58.398Z,1018.60
2023-02-16T12:49:58.393Z,1018.57
2023-02-16T12:50:58.387Z,1018.56
2023-02-16T12:51:59.289Z,1018.48